Colinas de Fair View, PR

7:47 AM AST on February 26, 2017 (GMT -0400)
Colinas de Fairview | | Change Station

Elev 308 ft 18.36 °N, 66.03 °W | Updated 11 seconds ago

Partly Cloudy
Partly Cloudy
73.6 °F
Feels Like 74 °F
N
0.0
Wind Variable Wind from ENE

Today
High -- | Low -- °F
--% Chance of Precip.
Yesterday
High -- | Low -- °F
Precip. -- in
Pressure 30.03 in
Visibility 10.0 miles
Clouds Few 2800 ft
Scattered Clouds 6500 ft
Scattered Clouds 10000 ft
Heat Index 74 °F
Dew Point 67 °F
Humidity 81%
Rainfall 0.00 in
Snow Depth Not available.
6:44 AM 6:29 PM
Waning Crescent, 0% visible
METAR TJSJ 261056Z 00000KT 10SM FEW028 SCT065 SCT100 23/22 A3003 RMK AO2 SLP168 T02330217
Pressure 30.03 in
Visibility 10.0 miles
Clouds Few 2800 ft
Scattered Clouds 6500 ft
Scattered Clouds 10000 ft
Heat Index 74 °F
Dew Point 67 °F
Humidity 81%
Rainfall 0.00 in
Snow Depth Not available.
6:44 AM 6:29 PM
Waning Crescent, 0% visible
METAR TJSJ 261056Z 00000KT 10SM FEW028 SCT065 SCT100 23/22 A3003 RMK AO2 SLP168 T02330217

Get Your Daily Forecast Email!

Thanks for signing up!

Be on the lookout for a verification email in your inbox.

You'll start receiving the daily forecast at 8 AM.

×

10-Day Weather Forecast

Almanac

Astronomy

Feb. 26, 2017 Rise Set
Actual Time
Civil Twilight
Nautical Twilight
Astronomical Twilight
Moon
Length of Visible Light
Length of Day
Tomorrow will be .
, % of the Moon is Illuminated

Today's Extremes

State Highs State Lows

Community

WunderPhotos

Upload Photos

1,962,540 photos uploaded!

WunderBlog® & News

Nearby

Air Quality

  Air Quality AQ Index Pollutant
Not available.

Snow Depth

Station Depth Elevation

Earthquake Activity

City Distance Mag. Time & Date
Minimum magnitude displayed is 2.5.

Coastal Water Temperatures

Place Temperature

Stations

Nearby Weather Stations

Station Location Temp. Windchill Dew Point Humidity Wind Precip. Elev Updated Type
                   

Watches & Warnings

There are currently no watches in effect.